Time;durP1;ratioP1;P1;durP2;ratioP2;P2;SDS_P1;SDS_P2;PMS_P1;PMS_P2;Temp;Humidity;BMP_temperature;BMP_pressure;BME280_temperature;BME280_humidity;BME280_pressure;Samples;Min_cycle;Max_cycle;Signal;HPM_P1;HPM_P2
2023/07/15 00:00:37;;;;;;;10.10;4.00;;;;;;;19.37;47.50;100629.89;110928;1212;99126;-66
2023/07/15 00:03:03;;;;;;;16.20;3.90;;;;;;;19.35;47.52;100625.88;110800;1212;138682;-66
2023/07/15 00:05:35;;;;;;;11.00;3.90;;;;;;;19.34;47.38;100627.27;110932;1223;99080;-66
2023/07/15 00:08:01;;;;;;;5.60;3.70;;;;;;;19.32;47.38;100628.55;110809;1209;139586;-66
2023/07/15 00:10:27;;;;;;;14.50;5.10;;;;;;;19.28;47.53;100631.54;111169;1209;99529;-66
2023/07/15 00:12:52;;;;;;;5.90;3.40;;;;;;;19.25;47.38;100630.17;110934;1208;99056;-66
2023/07/15 00:15:17;;;;;;;6.30;3.70;;;;;;;19.22;47.46;100626.22;110704;1214;139189;-63
2023/07/15 00:17:43;;;;;;;7.50;3.30;;;;;;;19.21;47.53;100627.80;110858;1213;98036;-63
2023/07/15 00:20:14;;;;;;;10.60;3.80;;;;;;;19.20;47.63;100629.70;110850;1209;139343;-63
2023/07/15 00:22:43;;;;;;;5.80;3.50;;;;;;;19.17;47.68;100625.20;110870;1213;100398;-63
2023/07/15 00:25:15;;;;;;;8.30;3.60;;;;;;;19.16;47.66;100625.42;110861;1212;99040;-63
2023/07/15 00:27:40;;;;;;;;;;;;;;;19.13;47.73;100621.69;110869;1208;204568;-63
2023/07/15 00:30:08;;;;;;;6.60;3.30;;;;;;;19.09;47.85;100618.74;111014;1208;98971;-63
2023/07/15 00:32:33;;;;;;;3.90;3.10;;;;;;;19.07;47.86;100616.95;110876;1208;139038;-64
2023/07/15 00:34:58;;;;;;;6.70;3.80;;;;;;;19.05;47.81;100617.28;110885;1208;98939;-63
2023/07/15 00:37:23;;;;;;;7.60;3.00;;;;;;;19.02;47.79;100619.48;110767;1212;139469;-63
2023/07/15 00:39:49;;;;;;;8.50;4.10;;;;;;;19.01;47.85;100616.86;110927;1209;99113;-63
2023/07/15 00:42:37;;;;;;;6.20;3.50;;;;;;;19.00;47.91;100610.58;110875;1209;99463;-63
2023/07/15 00:45:03;;;;;;;7.60;3.80;;;;;;;18.99;47.93;100606.38;110720;1208;140386;-63
2023/07/15 00:47:39;;;;;;;6.90;3.90;;;;;;;18.96;47.93;100605.48;110918;1212;99694;-63
2023/07/15 00:50:06;;;;;;;5.80;2.80;;;;;;;18.93;48.04;100602.27;110807;1209;138742;-63
2023/07/15 00:52:32;;;;;;;9.40;3.20;;;;;;;18.92;48.01;100599.10;110937;1209;98937;-63
2023/07/15 00:54:57;;;;;;;6.70;2.90;;;;;;;18.89;48.08;100590.09;110807;1212;98973;-63
2023/07/15 00:57:25;;;;;;;8.50;3.00;;;;;;;18.89;48.11;100591.38;110818;1213;139257;-63
2023/07/15 00:59:52;;;;;;;10.80;3.70;;;;;;;18.87;48.04;100589.70;110807;1212;104029;-63
2023/07/15 01:02:18;;;;;;;5.20;3.20;;;;;;;18.86;48.09;100590.50;110756;1208;138880;-63
2023/07/15 01:04:45;;;;;;;10.30;3.20;;;;;;;18.85;48.12;100592.42;110868;1212;98999;-63
2023/07/15 01:07:10;;;;;;;8.90;3.40;;;;;;;18.83;48.28;100590.58;110902;1208;98965;-64
2023/07/15 01:09:36;;;;;;;7.80;3.80;;;;;;;18.81;48.10;100583.46;110854;1209;139458;-63
2023/07/15 01:12:01;;;;;;;5.60;3.50;;;;;;;18.80;48.36;100583.93;110989;1208;99394;-63
2023/07/15 01:14:28;;;;;;;12.50;5.20;;;;;;;18.78;48.29;100586.81;110750;1212;140350;-63
2023/07/15 01:16:54;;;;;;;23.90;5.90;;;;;;;18.77;48.38;100585.41;110916;1209;99879;-63
2023/07/15 01:19:20;;;;;;;11.50;4.70;;;;;;;18.77;48.37;100583.27;110931;1208;104450;-63
2023/07/15 01:21:50;;;;;;;9.60;4.20;;;;;;;18.76;48.38;100580.66;110841;1212;99024;-63
2023/07/15 01:24:17;;;;;;;6.10;3.60;;;;;;;18.75;48.40;100578.91;110877;1209;98947;-63
2023/07/15 01:26:42;;;;;;;6.80;3.50;;;;;;;18.73;48.54;100576.89;110885;1212;138238;-63
2023/07/15 01:29:07;;;;;;;6.70;3.20;;;;;;;18.73;48.49;100582.36;111034;1220;98929;-63
2023/07/15 01:31:32;;;;;;;4.20;3.00;;;;;;;18.71;48.39;100579.54;110781;1209;139212;-63
2023/07/15 01:33:58;;;;;;;6.50;2.90;;;;;;;18.69;48.51;100577.19;110772;1212;100070;-63
2023/07/15 01:36:24;;;;;;;9.00;2.90;;;;;;;18.69;48.78;100577.07;110943;1213;99061;-63
2023/07/15 01:38:50;;;;;;;7.10;3.20;;;;;;;18.68;48.76;100575.52;110824;1212;138557;-63
2023/07/15 01:41:16;;;;;;;4.30;2.50;;;;;;;18.66;48.72;100576.89;110952;1210;99006;-63
2023/07/15 01:43:41;;;;;;;3.70;2.60;;;;;;;18.65;48.72;100575.51;110862;1212;140062;-63
2023/07/15 01:46:06;;;;;;;4.80;3.30;;;;;;;18.65;48.81;100577.58;111028;1209;100261;-64
2023/07/15 01:48:32;;;;;;;5.00;3.30;;;;;;;18.64;48.79;100578.53;110874;1212;98986;-64
2023/07/15 01:50:57;;;;;;;6.60;3.20;;;;;;;18.62;48.77;100575.39;110796;1212;138699;-63
2023/07/15 01:53:22;;;;;;;4.70;3.30;;;;;;;18.62;48.74;100576.16;110938;1208;98936;-63
2023/07/15 01:55:48;;;;;;;5.80;3.30;;;;;;;18.61;49.04;100569.54;110903;1209;138919;-63
2023/07/15 01:58:13;;;;;;;6.50;3.20;;;;;;;18.59;48.96;100563.83;110906;1212;100390;-63
2023/07/15 02:00:38;;;;;;;7.70;3.00;;;;;;;18.57;48.99;100562.73;110956;1208;99103;-63
2023/07/15 02:03:03;;;;;;;6.00;4.00;;;;;;;18.53;49.25;100562.11;110827;1213;138122;-63
2023/07/15 02:05:29;;;;;;;8.50;3.30;;;;;;;18.48;49.26;100560.47;110960;1212;99021;-63
2023/07/15 02:07:55;;;;;;;9.90;3.60;;;;;;;18.47;49.41;100559.48;110783;1208;140317;-63
2023/07/15 02:10:23;;;;;;;8.20;3.80;;;;;;;18.46;49.45;100556.66;110939;1212;98942;-63
2023/07/15 02:12:48;;;;;;;4.20;3.20;;;;;;;18.43;49.50;100555.98;110920;1212;99069;-63
2023/07/15 02:15:13;;;;;;;5.40;3.30;;;;;;;18.41;49.63;100557.61;110899;1209;139549;-63
2023/07/15 02:17:39;;;;;;;7.40;3.60;;;;;;;18.39;49.81;100555.44;110957;1210;99064;-63
2023/07/15 02:20:07;;;;;;;7.60;3.80;;;;;;;18.37;49.90;100556.16;110825;1209;139342;-63
2023/07/15 02:22:32;;;;;;;5.20;3.20;;;;;;;18.33;49.92;100554.80;110964;1208;99024;-63
2023/07/15 02:24:58;;;;;;;4.90;3.60;;;;;;;18.30;50.02;100555.28;110854;1209;99025;-63
2023/07/15 02:27:23;;;;;;;6.00;3.40;;;;;;;18.27;50.17;100548.28;110949;1209;138507;-63
2023/07/15 02:29:48;;;;;;;8.40;3.40;;;;;;;18.23;50.33;100547.43;110963;1214;99089;-63
2023/07/15 02:32:15;;;;;;;7.40;3.90;;;;;;;18.23;50.45;100542.20;110882;1213;137978;-63
2023/07/15 02:34:41;;;;;;;7.90;3.60;;;;;;;18.23;50.52;100544.94;110930;1208;98901;-63
2023/07/15 02:37:06;;;;;;;6.50;3.60;;;;;;;18.23;50.53;100548.56;110921;1208;99056;-63
2023/07/15 02:39:34;;;;;;;10.40;3.90;;;;;;;18.24;50.61;100546.70;110833;1214;139024;-63
2023/07/15 02:42:00;;;;;;;10.40;4.30;;;;;;;18.22;50.66;100550.46;110947;1214;104488;-63
2023/07/15 02:44:25;;;;;;;6.70;3.50;;;;;;;18.19;50.79;100547.09;110843;1208;138549;-63
2023/07/15 02:46:52;;;;;;;7.80;3.90;;;;;;;18.18;50.87;100545.02;110904;1209;99069;-63
2023/07/15 02:49:17;;;;;;;6.30;4.00;;;;;;;18.16;50.81;100540.95;111005;1208;98149;-63
2023/07/15 02:51:43;;;;;;;6.80;3.90;;;;;;;18.16;50.98;100542.63;110688;1208;139511;-63
2023/07/15 02:54:08;;;;;;;5.20;3.80;;;;;;;18.16;51.13;100538.95;110862;1213;99243;-63
2023/07/15 02:56:33;;;;;;;10.50;4.30;;;;;;;18.17;51.11;100532.39;110711;1208;138479;-63
2023/07/15 02:58:58;;;;;;;9.00;3.70;;;;;;;18.16;51.22;100534.48;111002;1212;99051;-63
2023/07/15 03:01:24;;;;;;;6.50;3.90;;;;;;;18.14;51.26;100533.50;110854;1212;138730;-63
2023/07/15 03:03:49;;;;;;;8.60;3.90;;;;;;;18.13;51.39;100533.25;110871;1211;99020;-63
2023/07/15 03:06:14;;;;;;;6.60;3.70;;;;;;;18.13;51.27;100531.81;111046;1214;98149;-63
2023/07/15 03:08:39;;;;;;;7.80;4.30;;;;;;;18.13;51.55;100529.12;110841;1214;138587;-63
2023/07/15 03:11:09;;;;;;;6.50;3.40;;;;;;;18.14;51.49;100536.28;110935;1208;99026;-64
2023/07/15 03:13:34;;;;;;;9.40;4.00;;;;;;;18.13;51.55;100533.46;110851;1214;138963;-63
2023/07/15 03:16:00;;;;;;;9.10;4.10;;;;;;;18.12;51.64;100532.23;111063;1212;98993;-63
2023/07/15 03:18:26;;;;;;;9.20;3.60;;;;;;;18.12;51.71;100529.89;111055;1209;97839;-63
2023/07/15 03:20:56;;;;;;;7.20;3.70;;;;;;;18.12;51.67;100524.46;110773;1210;138547;-63
2023/07/15 03:23:22;;;;;;;9.30;3.90;;;;;;;18.12;51.71;100523.55;110976;1214;99063;-63
2023/07/15 03:25:47;;;;;;;6.90;3.60;;;;;;;18.13;51.88;100524.95;110863;1211;138715;-63
2023/07/15 03:28:12;;;;;;;7.00;4.00;;;;;;;18.13;51.81;100522.02;111015;1217;99032;-64
2023/07/15 03:30:38;;;;;;;8.50;3.70;;;;;;;18.14;51.94;100518.73;110951;1214;99341;-63
2023/07/15 03:33:04;;;;;;;5.60;3.60;;;;;;;18.15;51.90;100516.46;110936;1220;138585;-63
2023/07/15 03:35:29;;;;;;;7.90;3.40;;;;;;;18.17;52.00;100515.05;110916;1213;104287;-63
2023/07/15 03:37:54;;;;;;;8.10;4.10;;;;;;;18.19;52.10;100509.64;110847;1209;138406;-64
2023/07/15 03:40:21;;;;;;;6.30;3.10;;;;;;;18.22;52.06;100516.48;111003;1214;99113;-64
2023/07/15 03:42:46;;;;;;;8.70;3.70;;;;;;;18.23;52.11;100513.83;110914;1208;99042;-64
2023/07/15 03:45:11;;;;;;;6.00;3.80;;;;;;;18.28;52.23;100514.00;110748;1209;138581;-64
2023/07/15 03:47:37;;;;;;;7.60;3.50;;;;;;;18.31;52.26;100515.39;110968;1212;99030;-64
2023/07/15 03:50:04;;;;;;;7.30;3.80;;;;;;;18.34;52.26;100511.13;110739;1211;138453;-64
2023/07/15 03:52:30;;;;;;;4.90;3.00;;;;;;;18.37;52.34;100503.10;111004;1213;99049;-64
2023/07/15 03:54:56;;;;;;;9.40;3.60;;;;;;;18.41;52.35;100503.15;110939;1224;98981;-64
2023/07/15 03:57:22;;;;;;;6.00;3.60;;;;;;;18.46;52.35;100501.48;110921;1212;140646;-64
2023/07/15 03:59:47;;;;;;;9.00;3.30;;;;;;;18.49;52.26;100498.16;110881;1211;98906;-64
2023/07/15 04:02:12;;;;;;;13.20;3.90;;;;;;;18.54;52.41;100488.40;110915;1214;137928;-64
2023/07/15 04:04:37;;;;;;;8.60;3.40;;;;;;;18.59;52.44;100484.75;110871;1208;99271;-64
2023/07/15 04:07:03;;;;;;;9.10;3.30;;;;;;;18.64;52.47;100488.19;111012;1214;99348;-64
2023/07/15 04:09:28;;;;;;;9.90;3.70;;;;;;;18.67;52.44;100490.10;110768;1212;138508;-64
2023/07/15 04:11:55;;;;;;;6.10;3.60;;;;;;;18.70;52.44;100492.01;110946;1212;100351;-65
2023/07/15 04:14:20;;;;;;;8.70;3.70;;;;;;;18.75;52.46;100498.02;110938;1212;140122;-64
2023/07/15 04:16:45;;;;;;;9.60;2.60;;;;;;;18.79;52.54;100496.91;110911;1214;98920;-64
2023/07/15 04:19:11;;;;;;;8.70;3.60;;;;;;;18.85;52.47;100494.70;110868;1212;99004;-64
2023/07/15 04:21:36;;;;;;;5.40;2.90;;;;;;;18.88;52.36;100488.44;110881;1209;139441;-64
2023/07/15 04:24:03;;;;;;;8.60;4.00;;;;;;;18.92;52.55;100487.21;110857;1208;99050;-64
2023/07/15 04:26:28;;;;;;;13.40;3.80;;;;;;;18.96;52.54;100493.61;110914;1210;138458;-64
2023/07/15 04:28:57;;;;;;;9.70;3.60;;;;;;;18.98;52.52;100496.48;110884;1209;97829;-64
2023/07/15 04:31:23;;;;;;;7.80;3.30;;;;;;;19.00;52.44;100499.63;110843;1214;139254;-64
2023/07/15 04:33:49;;;;;;;6.40;3.30;;;;;;;19.01;52.39;100500.23;110884;1208;98977;-64
2023/07/15 04:36:18;;;;;;;4.90;3.60;;;;;;;19.03;52.44;100498.24;110817;1213;98976;-64
2023/07/15 04:38:43;;;;;;;5.10;3.20;;;;;;;19.04;52.37;100498.54;110767;1212;138159;-64
2023/07/15 04:41:08;;;;;;;5.60;3.20;;;;;;;19.05;52.43;100496.79;110982;1212;98917;-65
2023/07/15 04:43:33;;;;;;;5.70;3.50;;;;;;;19.07;52.47;100502.42;110703;1211;138630;-64
2023/07/15 04:45:59;;;;;;;7.10;3.60;;;;;;;19.08;52.47;100502.34;110995;1208;98971;-64
2023/07/15 04:48:25;;;;;;;7.50;4.20;;;;;;;19.09;52.45;100503.90;110901;1208;104477;-64
2023/07/15 04:50:50;;;;;;;6.50;3.40;;;;;;;19.10;52.44;100504.36;110768;1212;139563;-64
2023/07/15 04:53:16;;;;;;;9.20;3.80;;;;;;;19.11;52.53;100510.24;110929;1212;99034;-64
2023/07/15 04:55:42;;;;;;;7.80;3.60;;;;;;;19.11;52.55;100504.31;110789;1212;138255;-64
2023/07/15 04:58:08;;;;;;;8.40;3.90;;;;;;;19.12;52.63;100501.48;111090;1212;99296;-65
2023/07/15 05:00:33;;;;;;;6.10;3.40;;;;;;;19.16;52.75;100501.77;110818;1211;97793;-64
2023/07/15 05:02:59;;;;;;;7.20;3.80;;;;;;;19.19;52.77;100498.05;110719;1208;139673;-64
2023/07/15 05:05:24;;;;;;;9.70;3.70;;;;;;;19.20;52.71;100497.40;110977;1208;98993;-64
2023/07/15 05:07:50;;;;;;;5.50;3.40;;;;;;;19.23;52.66;100501.02;110935;1209;138761;-64
2023/07/15 05:10:15;;;;;;;5.30;3.40;;;;;;;19.26;52.69;100503.08;110895;1212;98939;-64
2023/07/15 05:12:41;;;;;;;7.80;3.40;;;;;;;19.29;52.86;100503.39;110991;1210;99047;-64
2023/07/15 05:15:08;;;;;;;5.80;3.70;;;;;;;19.32;52.80;100502.02;110728;1208;139805;-64
2023/07/15 05:17:33;;;;;;;6.30;3.50;;;;;;;19.35;52.84;100501.80;110863;1215;99015;-64
2023/07/15 05:19:59;;;;;;;13.70;3.50;;;;;;;19.38;52.95;100502.11;110796;1214;138264;-64
2023/07/15 05:22:24;;;;;;;6.00;3.70;;;;;;;19.42;52.96;100503.22;111041;1209;98950;-64
2023/07/15 05:24:49;;;;;;;9.50;3.50;;;;;;;19.46;53.06;100499.60;110938;1209;98255;-64
2023/07/15 05:27:14;;;;;;;7.20;4.00;;;;;;;19.52;52.91;100498.65;110939;1209;137879;-64
2023/07/15 05:29:40;;;;;;;11.00;4.10;;;;;;;19.56;53.00;100495.90;110874;1208;98933;-64
2023/07/15 05:32:06;;;;;;;6.30;4.00;;;;;;;19.62;53.09;100497.25;110829;1212;139259;-64
2023/07/15 05:34:31;;;;;;;6.70;4.00;;;;;;;19.68;52.94;100494.37;110848;1208;100440;-64
2023/07/15 05:36:57;;;;;;;10.50;3.90;;;;;;;19.75;53.04;100493.60;110742;1208;98999;-64
2023/07/15 05:39:22;;;;;;;9.60;3.80;;;;;;;19.81;53.05;100495.06;110815;1212;138821;-65
2023/07/15 05:41:47;;;;;;;7.50;3.20;;;;;;;19.88;53.02;100492.35;110816;1209;98916;-64
2023/07/15 05:44:12;;;;;;;8.60;3.70;;;;;;;19.94;53.01;100488.54;110834;1212;139832;-64
2023/07/15 05:46:38;;;;;;;9.10;4.00;;;;;;;20.01;53.03;100480.52;110898;1212;99261;-64
2023/07/15 05:49:04;;;;;;;8.70;3.80;;;;;;;20.08;53.04;100479.92;110950;1214;100644;-64
2023/07/15 05:51:31;;;;;;;5.60;3.90;;;;;;;20.16;53.11;100479.58;110685;1214;139763;-65
2023/07/15 05:53:56;;;;;;;6.20;4.00;;;;;;;20.23;53.15;100477.86;110621;1214;98723;-65
2023/07/15 05:56:22;;;;;;;14.20;4.20;;;;;;;20.31;53.11;100473.39;110686;1213;139024;-65
2023/07/15 05:58:47;;;;;;;16.00;4.50;;;;;;;20.39;53.01;100474.71;110763;1212;99050;-64
2023/07/15 06:01:12;;;;;;;8.40;3.90;;;;;;;20.45;53.09;100476.52;110782;1210;100246;-64
2023/07/15 06:03:38;;;;;;;8.40;4.00;;;;;;;20.54;53.13;100472.70;110636;1209;140079;-64
2023/07/15 06:06:03;;;;;;;7.30;4.10;;;;;;;20.63;53.11;100473.53;110670;1215;97820;-64
2023/07/15 06:08:29;;;;;;;5.60;3.50;;;;;;;20.72;53.04;100470.70;110606;1214;138963;-63
2023/07/15 06:10:54;;;;;;;6.20;3.60;;;;;;;20.81;53.11;100473.92;110833;1214;99047;-64
2023/07/15 06:13:19;;;;;;;8.10;3.60;;;;;;;20.88;53.08;100469.21;110797;1222;99038;-67
2023/07/15 06:15:52;;;;;;;9.50;3.90;;;;;;;20.98;53.04;100465.27;110744;1212;138358;-63
2023/07/15 06:18:19;;;;;;;8.00;3.70;;;;;;;21.06;53.03;100464.11;113015;1208;97149;-64
2023/07/15 06:20:47;;;;;;;9.50;3.30;;;;;;;21.16;53.07;100466.16;112876;1207;138245;-64
2023/07/15 06:23:13;;;;;;;7.40;4.00;;;;;;;21.26;52.93;100464.01;111761;1210;99056;-64
2023/07/15 06:25:39;;;;;;;9.20;4.20;;;;;;;21.35;53.04;100462.63;110666;1210;138771;-64
2023/07/15 06:28:05;;;;;;;8.40;4.00;;;;;;;21.44;53.02;100458.72;110869;1210;99079;-64
2023/07/15 06:30:31;;;;;;;8.90;3.90;;;;;;;21.54;52.90;100460.89;110760;1209;98947;-64
2023/07/15 06:32:56;;;;;;;11.10;3.80;;;;;;;21.62;52.87;100460.33;110389;1209;139815;-65
2023/07/15 06:35:21;;;;;;;14.60;4.30;;;;;;;21.69;52.69;100461.63;110809;1211;99080;-64
2023/07/15 06:37:50;;;;;;;7.70;3.60;;;;;;;21.77;52.76;100463.73;110676;1213;140129;-65
2023/07/15 06:40:16;;;;;;;8.80;4.20;;;;;;;21.84;52.79;100458.79;110804;1209;98997;-64
2023/07/15 06:42:45;;;;;;;8.20;4.00;;;;;;;21.95;52.65;100458.36;110752;1214;99054;-65
2023/07/15 06:45:12;;;;;;;8.20;3.40;;;;;;;22.05;52.64;100456.48;110703;1210;139405;-64
2023/07/15 06:47:38;;;;;;;11.30;4.20;;;;;;;22.14;52.46;100460.23;110740;1209;99007;-65
2023/07/15 06:50:04;;;;;;;11.10;3.90;;;;;;;22.23;52.65;100460.08;110684;1212;138744;-65
2023/07/15 06:52:29;;;;;;;12.00;4.90;;;;;;;22.33;52.36;100461.27;110769;1212;98968;-64
2023/07/15 06:54:55;;;;;;;18.50;5.90;;;;;;;22.43;52.54;100462.23;110733;1212;98965;-64
2023/07/15 06:57:20;;;;;;;7.80;4.10;;;;;;;22.50;52.21;100460.23;110728;1212;140032;-64
2023/07/15 06:59:46;;;;;;;15.90;5.00;;;;;;;22.56;52.39;100461.96;110830;1225;99997;-64
2023/07/15 07:02:12;;;;;;;16.70;4.70;;;;;;;22.62;52.26;100460.85;110660;1212;139950;-65
2023/07/15 07:04:37;;;;;;;9.60;3.80;;;;;;;22.68;52.17;100457.59;110825;1221;98600;-65
2023/07/15 07:07:02;;;;;;;12.00;4.90;;;;;;;22.72;51.84;100459.88;110768;1212;99149;-65
2023/07/15 07:09:27;;;;;;;6.30;5.00;;;;;;;22.76;51.96;100452.73;110642;1209;139375;-65
2023/07/15 07:11:53;;;;;;;6.60;4.40;;;;;;;22.83;52.00;100454.25;110787;1212;99109;-65
2023/07/15 07:14:18;;;;;;;10.90;4.50;;;;;;;22.91;52.05;100455.55;110740;1209;138913;-65
2023/07/15 07:16:43;;;;;;;7.70;4.40;;;;;;;22.96;51.86;100452.77;110751;1210;99065;-65
2023/07/15 07:19:09;;;;;;;7.90;3.80;;;;;;;23.04;51.80;100448.98;110805;1212;98950;-65
2023/07/15 07:21:34;;;;;;;10.50;4.00;;;;;;;23.10;51.77;100445.96;110803;1210;140396;-65
2023/07/15 07:23:59;;;;;;;12.90;4.80;;;;;;;23.18;51.34;100444.23;110860;1209;99045;-65
2023/07/15 07:26:24;;;;;;;12.20;4.70;;;;;;;23.26;51.47;100437.61;110684;1212;138692;-65
2023/07/15 07:28:50;;;;;;;13.40;4.10;;;;;;;23.33;51.38;100437.31;110712;1209;98932;-65
2023/07/15 07:31:17;;;;;;;6.30;4.60;;;;;;;23.38;51.26;100436.94;110721;1212;99484;-65
2023/07/15 07:33:43;;;;;;;11.80;4.30;;;;;;;23.44;51.27;100436.55;110623;1208;138371;-66
2023/07/15 07:36:09;;;;;;;11.60;4.10;;;;;;;23.49;51.22;100438.59;110685;1214;99809;-66
2023/07/15 07:38:34;;;;;;;12.90;4.10;;;;;;;23.55;51.29;100437.92;110682;1215;139075;-66
2023/07/15 07:41:17;;;;;;;8.30;4.20;;;;;;;23.64;51.02;100435.95;110678;1212;99088;-66
2023/07/15 07:43:43;;;;;;;9.30;4.10;;;;;;;23.72;51.10;100437.56;110545;1223;139348;-64
2023/07/15 07:46:10;;;;;;;13.50;4.20;;;;;;;23.80;51.14;100436.92;110645;1209;99126;-64
2023/07/15 07:48:36;;;;;;;12.00;5.00;;;;;;;23.87;50.91;100435.25;110681;1209;98967;-64
2023/07/15 07:51:01;;;;;;;12.80;5.50;;;;;;;23.96;50.59;100432.77;110679;1210;138885;-64
2023/07/15 07:53:27;;;;;;;27.80;12.30;;;;;;;24.02;50.63;100431.52;110716;1212;98951;-67
2023/07/15 07:55:53;;;;;;;13.60;5.40;;;;;;;24.11;50.55;100431.66;110627;1215;140432;-64
2023/07/15 07:58:18;;;;;;;10.40;5.40;;;;;;;24.20;50.49;100430.36;110802;1209;98956;-65
2023/07/15 08:00:44;;;;;;;8.40;3.40;;;;;;;24.29;50.24;100432.55;110700;1210;99028;-64
2023/07/15 08:03:09;;;;;;;12.20;4.20;;;;;;;24.39;50.25;100428.30;110838;1209;138785;-65
2023/07/15 08:05:41;;;;;;;7.30;3.60;;;;;;;24.48;49.91;100426.00;110826;1212;99026;-63
2023/07/15 08:08:06;;;;;;;7.30;3.50;;;;;;;24.58;49.78;100428.27;110798;1209;139845;-64
2023/07/15 08:10:31;;;;;;;4.60;3.10;;;;;;;24.66;49.56;100427.80;110872;1212;99166;-64
2023/07/15 08:12:57;;;;;;;8.30;3.70;;;;;;;24.73;49.43;100420.41;110891;1212;98955;-64
2023/07/15 08:15:22;;;;;;;7.60;3.30;;;;;;;24.82;49.37;100417.48;110773;1212;138109;-63
2023/07/15 08:17:47;;;;;;;9.30;3.40;;;;;;;24.89;49.32;100415.69;110924;1212;99082;-64
2023/07/15 08:20:12;;;;;;;9.00;4.20;;;;;;;24.97;49.22;100409.85;110674;1210;138052;-64
2023/07/15 08:22:38;;;;;;;10.10;4.10;;;;;;;25.05;48.95;100404.38;110801;1210;99029;-65
2023/07/15 08:25:03;;;;;;;9.30;3.60;;;;;;;25.15;49.00;100403.52;110894;1208;99108;-64
2023/07/15 08:27:29;;;;;;;5.10;3.20;;;;;;;25.23;48.91;100400.94;110723;1212;138773;-64
2023/07/15 08:29:54;;;;;;;8.10;3.50;;;;;;;25.35;48.81;100405.13;110809;1209;99021;-64
2023/07/15 08:32:19;;;;;;;6.10;2.90;;;;;;;25.44;48.64;100402.47;110681;1209;139097;-64
2023/07/15 08:35:01;;;;;;;7.10;3.00;;;;;;;25.53;48.44;100404.95;110863;1212;99037;-67
2023/07/15 08:37:27;;;;;;;6.50;3.20;;;;;;;25.63;48.08;100408.25;110742;1212;138368;-64
2023/07/15 08:39:53;;;;;;;10.20;3.30;;;;;;;25.73;47.92;100405.40;110829;1209;98955;-68
2023/07/15 08:42:21;;;;;;;5.50;3.20;;;;;;;25.82;47.93;100406.13;110939;1212;99484;-65
2023/07/15 08:44:50;;;;;;;13.80;4.20;;;;;;;25.91;47.66;100407.61;110644;1213;139826;-64
2023/07/15 08:47:23;;;;;;;10.80;3.80;;;;;;;25.97;47.53;100409.26;110853;1213;99838;-64
2023/07/15 08:49:50;;;;;;;5.50;3.40;;;;;;;26.02;47.35;100408.45;110681;1215;140303;-65
2023/07/15 08:52:23;;;;;;;8.30;3.60;;;;;;;26.07;47.21;100408.51;110945;1209;99012;-65
2023/07/15 08:54:51;;;;;;;14.20;3.50;;;;;;;26.11;47.05;100404.15;110753;1212;99046;-64
2023/07/15 08:57:18;;;;;;;9.50;4.10;;;;;;;26.18;46.89;100403.73;110725;1209;138691;-65
2023/07/15 08:59:48;;;;;;;8.70;4.00;;;;;;;26.25;46.85;100403.54;111230;1212;99011;-64
2023/07/15 09:02:13;;;;;;;9.20;3.50;;;;;;;26.33;46.72;100404.31;110855;1209;138099;-64
2023/07/15 09:04:39;;;;;;;12.40;4.00;;;;;;;26.42;46.61;100399.64;110879;1212;99040;-64
2023/07/15 09:07:05;;;;;;;7.50;3.80;;;;;;;26.48;46.35;100401.58;111107;1208;98896;-64
2023/07/15 09:09:36;;;;;;;5.20;3.30;;;;;;;26.51;46.35;100393.89;110908;1212;138014;-65
2023/07/15 09:12:04;;;;;;;10.10;3.70;;;;;;;26.57;46.17;100392.36;110954;1209;100734;-64
2023/07/15 09:14:29;;;;;;;7.20;3.90;;;;;;;26.65;46.03;100390.85;110893;1209;139689;-65
2023/07/15 09:16:57;;;;;;;5.50;3.90;;;;;;;26.74;45.98;100386.53;110854;1212;99575;-64
2023/07/15 09:19:25;;;;;;;8.80;3.40;;;;;;;26.80;45.88;100384.81;110941;1212;139730;-64
2023/07/15 09:22:02;;;;;;;9.10;3.50;;;;;;;26.89;45.84;100379.18;110934;1209;98956;-64
2023/07/15 09:24:30;;;;;;;6.70;4.00;;;;;;;26.98;45.68;100377.86;110943;1210;99449;-65
2023/07/15 09:26:55;;;;;;;4.70;3.20;;;;;;;27.06;45.57;100373.64;110782;1208;138525;-65
2023/07/15 09:29:21;;;;;;;7.90;3.50;;;;;;;27.16;45.33;100371.60;110896;1212;99055;-65
2023/07/15 09:31:47;;;;;;;6.90;3.20;;;;;;;27.23;45.34;100370.22;110831;1209;138089;-65
2023/07/15 09:34:12;;;;;;;8.00;3.00;;;;;;;27.35;45.12;100372.72;110868;1212;99783;-65
2023/07/15 09:36:37;;;;;;;9.90;3.40;;;;;;;27.46;44.97;100370.86;110890;1209;99054;-65
2023/07/15 09:39:11;;;;;;;7.10;3.10;;;;;;;27.54;44.74;100372.05;110888;1215;138054;-65
2023/07/15 09:41:36;;;;;;;8.70;3.40;;;;;;;27.62;44.59;100365.38;110904;1215;99086;-65
2023/07/15 09:44:02;;;;;;;11.90;3.60;;;;;;;27.75;44.26;100362.56;110764;1209;138394;-66
2023/07/15 09:46:29;;;;;;;5.40;2.90;;;;;;;27.86;44.04;100363.27;110933;1212;98980;-64
2023/07/15 09:48:56;;;;;;;4.70;2.90;;;;;;;27.96;43.91;100361.45;110909;1212;104432;-63
2023/07/15 09:51:24;;;;;;;10.40;2.60;;;;;;;28.06;43.49;100357.05;110937;1209;139384;-65
2023/07/15 09:53:53;;;;;;;3.90;2.80;;;;;;;28.17;43.43;100357.40;110913;1212;100455;-64
2023/07/15 09:56:31;;;;;;;4.70;2.60;;;;;;;28.29;42.87;100353.72;110830;1210;140304;-64
2023/07/15 09:59:03;;;;;;;6.40;3.10;;;;;;;28.36;42.66;100348.66;111124;1212;99095;-64
2023/07/15 10:01:34;;;;;;;8.10;3.10;;;;;;;28.44;42.68;100345.05;110829;1212;138399;-64
2023/07/15 10:04:11;;;;;;;5.50;2.70;;;;;;;28.55;42.48;100342.61;110937;1208;99013;-64
2023/07/15 10:06:37;;;;;;;6.80;3.30;;;;;;;28.62;42.05;100344.23;110887;1210;99331;-64
2023/07/15 10:09:04;;;;;;;5.00;2.80;;;;;;;28.66;42.04;100338.59;110819;1209;138158;-64
2023/07/15 10:11:30;;;;;;;3.20;2.20;;;;;;;28.75;41.73;100335.23;110998;1212;99025;-64
2023/07/15 10:13:57;;;;;;;7.40;3.00;;;;;;;28.88;41.59;100327.14;111097;1209;138201;-64
2023/07/15 10:16:22;;;;;;;7.00;2.50;;;;;;;28.93;41.20;100323.69;111071;1209;99304;-64
2023/07/15 10:18:47;;;;;;;8.20;2.80;;;;;;;29.01;41.12;100322.43;110881;1209;99056;-64
2023/07/15 10:21:14;;;;;;;6.80;2.40;;;;;;;29.13;40.94;100326.58;110821;1212;139589;-64
2023/07/15 10:23:40;;;;;;;5.80;2.60;;;;;;;29.27;40.73;100328.14;110966;1209;98942;-64
2023/07/15 10:26:07;;;;;;;5.30;2.60;;;;;;;29.41;40.53;100326.95;110794;1209;139173;-64
2023/07/15 10:28:40;;;;;;;10.50;2.60;;;;;;;29.51;40.24;100324.34;111060;1209;98962;-64
2023/07/15 10:31:14;;;;;;;4.60;2.50;;;;;;;29.60;40.25;100321.33;110981;1212;99048;-64
2023/07/15 10:34:03;;;;;;;8.40;2.40;;;;;;;29.70;40.06;100323.34;110763;1209;137872;-64
2023/07/15 10:36:47;;;;;;;6.90;2.50;;;;;;;29.85;39.82;100322.30;110913;1209;98908;-64
2023/07/15 10:39:19;;;;;;;2.80;2.20;;;;;;;30.00;39.61;100313.72;110955;1209;140235;-63
2023/07/15 10:41:52;;;;;;;3.90;2.30;;;;;;;30.10;39.23;100313.72;110978;1212;99034;-64
2023/07/15 10:44:22;;;;;;;4.70;2.20;;;;;;;30.24;38.82;100311.02;110829;1212;138519;-64
2023/07/15 10:47:04;;;;;;;5.50;2.20;;;;;;;30.39;38.60;100313.04;110883;1209;104629;-63
2023/07/15 10:49:30;;;;;;;6.80;1.80;;;;;;;30.53;38.01;100314.83;110851;1209;138699;-63
2023/07/15 10:51:56;;;;;;;2.10;1.90;;;;;;;30.66;37.44;100315.52;110891;1209;99128;-64
2023/07/15 10:54:24;;;;;;;5.50;2.70;;;;;;;30.78;37.08;100309.14;111032;1209;99073;-63
2023/07/15 10:56:49;;;;;;;3.30;1.80;;;;;;;30.93;36.84;100310.18;110838;1212;139321;-66
2023/07/15 10:59:15;;;;;;;4.10;2.00;;;;;;;31.03;36.25;100307.28;110998;1210;99114;-66
2023/07/15 11:01:42;;;;;;;3.10;1.90;;;;;;;31.10;35.94;100308.34;110907;1221;138890;-63
2023/07/15 11:04:07;;;;;;;4.30;1.60;;;;;;;31.19;35.43;100309.05;110881;1212;99025;-63
2023/07/15 11:06:34;;;;;;;2.90;2.00;;;;;;;31.33;35.28;100310.31;111010;1212;97862;-63
2023/07/15 11:09:21;;;;;;;2.70;2.10;;;;;;;31.49;34.83;100309.92;110802;1208;140228;-63